Terminal Aerodrome Forecast
Issued by NWS

Home | Current Version | Previous Version | Text Only | Print | Product List | Glossary On
Versions: 1 2 3 4 5 6 7 8 9 10 11 12 13 14 15 16 17 18 19 20 21 22 23 24 25 26
000
FTUS41 KBTV 222338
TAFRUT
TAF
KRUT 222338Z 2300/2324 11010KT P6SM SCT010 OVC030
      TEMPO 2300/2304 5SM -RA BR OVC010
     FM230400 11013G28KT P6SM OVC015
     FM231000 11015G32KT P6SM OVC020
     FM232000 10015G27KT P6SM VCSH OVC025=

USA.gov is the U.S. government's official web portal to all federal, state and local government web resources and services.